createdAt,value
2019-04-27T00:00:53.520Z,41.10
2019-04-27T00:06:38.218Z,44.03
2019-04-27T00:09:50.244Z,43.43
2019-04-27T00:12:17.671Z,43.47
2019-04-27T00:15:05.263Z,40.63
2019-04-27T00:21:01.128Z,42.50
2019-04-27T00:23:48.786Z,42.87
2019-04-27T00:26:36.315Z,42.53
2019-04-27T00:29:44.657Z,45.77
2019-04-27T00:32:13.287Z,43.07
2019-04-27T00:34:43.273Z,45.17
2019-04-27T00:37:30.768Z,43.73
2019-04-27T00:40:18.299Z,52.60
2019-04-27T00:45:54.916Z,51.70
2019-04-27T00:48:43.286Z,47.43
2019-04-27T00:51:33.264Z,58.03
2019-04-27T00:57:15.526Z,52.43
2019-04-27T01:00:04.929Z,56.80
2019-04-27T01:08:01.105Z,38.73
2019-04-27T01:10:48.767Z,45.73
2019-04-27T01:13:17.183Z,45.87
2019-04-27T01:15:45.603Z,43.60
2019-04-27T01:18:15.522Z,41.60
2019-04-27T01:21:03.452Z,40.57
2019-04-27T01:23:31.864Z,43.20
2019-04-27T01:26:19.427Z,55.07
2019-04-27T01:29:06.948Z,51.57
2019-04-27T01:35:09.727Z,40.17
2019-04-27T01:37:38.676Z,42.63
2019-04-27T01:40:49.815Z,36.87
2019-04-27T01:43:18.725Z,38.43
2019-04-27T01:45:48.844Z,40.80
2019-04-27T01:48:38.720Z,35.70
2019-04-27T01:51:27.098Z,37.80
2019-04-27T01:53:55.501Z,39.47
2019-04-27T01:56:23.940Z,42.67
2019-04-27T01:58:52.385Z,44.23
2019-04-27T02:02:00.714Z,46.87
2019-04-27T02:04:49.402Z,45.43
2019-04-27T02:07:19.194Z,42.70
2019-04-27T02:13:22.677Z,39.60
2019-04-27T02:15:51.094Z,41.30
2019-04-27T02:18:40.053Z,37.07
2019-04-27T02:21:09.145Z,47.60
2019-04-27T02:23:59.674Z,75.90
2019-04-27T02:26:29.918Z,71.07
2019-04-27T02:29:18.890Z,70.70
2019-04-27T02:32:06.639Z,73.97
2019-04-27T02:40:59.578Z,55.13
2019-04-27T02:43:49.759Z,59.10
2019-04-27T02:46:39.500Z,70.17
2019-04-27T02:49:27.044Z,52.93
2019-04-27T02:54:34.187Z,50.90
2019-04-27T02:57:21.880Z,52.60
2019-04-27T03:00:10.520Z,64.03
2019-04-27T03:05:54.953Z,51.50
2019-04-27T03:08:23.363Z,49.83
2019-04-27T03:11:11.034Z,52.13
2019-04-27T03:13:59.886Z,46.47
2019-04-27T03:16:49.627Z,52.07
2019-04-27T03:22:49.451Z,46.47
2019-04-27T03:28:46.206Z,39.67
2019-04-27T03:31:34.030Z,37.07
2019-04-27T03:34:22.546Z,39.67
2019-04-27T03:39:46.024Z,37.97
2019-04-27T03:45:52.227Z,36.43
2019-04-27T03:48:40.677Z,32.00
2019-04-27T03:51:49.811Z,34.53
2019-04-27T03:54:55.858Z,35.50
2019-04-27T04:01:00.034Z,35.80
2019-04-27T04:03:29.735Z,34.80
2019-04-27T04:06:00.292Z,35.43
2019-04-27T04:08:30.779Z,34.70
2019-04-27T04:11:19.834Z,35.00
2019-04-27T04:14:09.958Z,34.83
2019-04-27T04:17:01.726Z,36.07
2019-04-27T04:22:35.389Z,36.90
2019-04-27T04:25:43.719Z,35.00
2019-04-27T04:28:12.134Z,35.27
2019-04-27T04:30:40.558Z,37.10
2019-04-27T04:33:30.223Z,37.40
2019-04-27T04:39:04.963Z,34.17
2019-04-27T04:42:13.284Z,34.67
2019-04-27T04:48:09.898Z,34.43
2019-04-27T04:51:20.135Z,32.63
2019-04-27T04:53:51.882Z,32.50
2019-04-27T04:56:19.494Z,33.77
2019-04-27T04:59:07.171Z,33.23
2019-04-27T05:02:15.502Z,32.03
2019-04-27T05:05:03.148Z,33.23
2019-04-27T05:07:50.806Z,32.33
2019-04-27T05:10:39.455Z,29.60
2019-04-27T05:13:09.315Z,29.93
2019-04-27T05:18:26.281Z,24.67
2019-04-27T05:21:33.062Z,26.27
2019-04-27T05:24:41.377Z,24.77
2019-04-27T05:27:29.086Z,24.40
2019-04-27T05:30:39.043Z,25.30
2019-04-27T05:33:28.520Z,23.07
2019-04-27T05:36:16.052Z,23.07
2019-04-27T05:38:45.886Z,24.90
2019-04-27T05:41:14.588Z,23.07
2019-04-27T05:44:03.281Z,24.47
2019-04-27T05:46:51.354Z,22.70
2019-04-27T05:49:41.201Z,24.23
2019-04-27T05:55:39.305Z,23.20
2019-04-27T05:58:09.313Z,23.03
2019-04-27T06:00:39.388Z,22.43
2019-04-27T06:03:29.460Z,23.77
2019-04-27T06:05:59.358Z,22.23
2019-04-27T06:08:47.048Z,21.40
2019-04-27T06:11:34.941Z,22.30
2019-04-27T06:14:03.360Z,21.60
2019-04-27T06:19:19.481Z,20.13
2019-04-27T06:21:50.014Z,21.23
2019-04-27T06:24:19.492Z,21.70
2019-04-27T06:26:49.652Z,19.20
2019-04-27T06:29:19.521Z,20.27
2019-04-27T06:34:35.650Z,17.57
2019-04-27T06:40:52.038Z,17.10
2019-04-27T06:43:40.567Z,17.63
2019-04-27T06:46:09.715Z,15.77
2019-04-27T06:48:39.465Z,15.90
2019-04-27T06:51:09.686Z,15.10
2019-04-27T06:53:59.330Z,15.43
2019-04-27T06:56:48.460Z,14.50
2019-04-27T06:59:18.584Z,13.97
2019-04-27T07:02:06.434Z,13.57
2019-04-27T07:04:34.850Z,12.80
2019-04-27T07:07:03.255Z,13.13
2019-04-27T07:09:50.922Z,14.50
2019-04-27T07:12:40.989Z,13.70
2019-04-27T07:15:48.624Z,12.37
2019-04-27T07:18:56.902Z,11.70
2019-04-27T07:21:25.317Z,11.47
2019-04-27T07:24:13.070Z,11.27
2019-04-27T07:26:41.481Z,10.40
2019-04-27T07:29:09.937Z,10.20
2019-04-27T07:31:40.068Z,10.40
2019-04-27T07:34:09.317Z,9.50
2019-04-27T07:36:59.608Z,10.13
2019-04-27T07:39:29.335Z,9.20
2019-04-27T07:41:58.536Z,8.07
2019-04-27T07:47:24.620Z,9.30
2019-04-27T07:50:12.141Z,8.70
2019-04-27T07:55:47.119Z,8.10
2019-04-27T07:58:34.763Z,6.20
2019-04-27T08:01:22.282Z,5.33
2019-04-27T08:04:09.941Z,5.80
2019-04-27T08:06:57.452Z,6.50
2019-04-27T08:09:25.864Z,5.83
2019-04-27T08:12:13.604Z,5.80
2019-04-27T08:15:01.359Z,5.40
2019-04-27T08:17:49.367Z,5.03
2019-04-27T08:20:36.873Z,5.53
2019-04-27T08:23:05.267Z,5.13
2019-04-27T08:25:33.676Z,4.53
2019-04-27T08:28:40.443Z,5.30
2019-04-27T08:33:48.658Z,5.10
2019-04-27T08:36:19.025Z,5.67
2019-04-27T08:38:48.938Z,4.80
2019-04-27T08:41:37.141Z,5.50
2019-04-27T08:44:24.789Z,6.53
2019-04-27T08:46:53.196Z,6.20
2019-04-27T08:49:21.600Z,5.30
2019-04-27T08:52:09.610Z,5.97
2019-04-27T08:54:57.265Z,5.00
2019-04-27T08:57:44.779Z,4.17
2019-04-27T09:00:53.129Z,4.67
2019-04-27T09:03:40.644Z,5.50
2019-04-27T09:11:39.253Z,4.80
2019-04-27T09:14:26.753Z,4.17
2019-04-27T09:17:14.276Z,4.03
2019-04-27T09:20:01.815Z,2.83
2019-04-27T09:22:49.454Z,3.30
2019-04-27T09:25:19.330Z,4.50
2019-04-27T09:27:49.247Z,5.80
2019-04-27T09:30:39.132Z,3.80
2019-04-27T09:36:34.660Z,3.80
2019-04-27T09:41:52.187Z,2.80
2019-04-27T09:44:20.585Z,1.30
2019-04-27T09:47:08.240Z,1.47
2019-04-27T09:49:38.475Z,1.50
2019-04-27T09:52:06.777Z,1.80
2019-04-27T09:54:55.940Z,1.97
2019-04-27T09:57:25.959Z,2.00
2019-04-27T09:59:56.402Z,2.10
2019-04-27T10:02:24.901Z,2.00
2019-04-27T10:05:12.554Z,2.00
2019-04-27T10:07:40.956Z,1.50
2019-04-27T10:10:49.275Z,1.97
2019-04-27T10:13:36.794Z,1.70
2019-04-27T10:19:00.028Z,1.53
2019-04-27T10:21:47.679Z,1.40
2019-04-27T10:24:16.094Z,1.77
2019-04-27T10:27:05.532Z,2.10
2019-04-27T10:29:35.527Z,2.13
2019-04-27T10:34:58.427Z,2.30
2019-04-27T10:37:26.835Z,2.40
2019-04-27T10:40:16.102Z,1.70
2019-04-27T10:43:03.744Z,2.40
2019-04-27T10:45:32.137Z,1.77
2019-04-27T10:48:19.815Z,2.13
2019-04-27T10:51:07.462Z,1.90
2019-04-27T10:53:38.752Z,1.97
2019-04-27T10:56:05.964Z,1.93
2019-04-27T10:58:35.638Z,1.70
2019-04-27T11:04:02.589Z,1.50
2019-04-27T11:09:50.160Z,1.50
2019-04-27T11:12:37.681Z,1.20
2019-04-27T11:15:46.221Z,1.60
2019-04-27T11:18:16.662Z,1.30
2019-04-27T11:20:46.882Z,1.73
2019-04-27T11:23:16.571Z,1.20
2019-04-27T11:25:46.889Z,1.40
2019-04-27T11:28:16.629Z,1.20
2019-04-27T11:31:04.145Z,1.60
2019-04-27T11:33:51.668Z,1.30
2019-04-27T11:36:39.194Z,1.20
2019-04-27T11:39:47.496Z,1.20
2019-04-27T11:42:35.153Z,1.27
2019-04-27T11:48:11.643Z,1.40
2019-04-27T11:51:19.951Z,1.53
2019-04-27T11:53:48.371Z,1.60
2019-04-27T11:56:36.271Z,1.50
2019-04-27T11:59:44.581Z,1.83
2019-04-27T12:02:32.104Z,1.93
2019-04-27T12:05:00.500Z,1.70
2019-04-27T12:07:28.901Z,2.47
2019-04-27T12:09:57.299Z,1.73
2019-04-27T12:12:46.326Z,1.43
2019-04-27T12:15:54.976Z,1.87
2019-04-27T12:18:42.656Z,1.50
2019-04-27T12:21:11.029Z,2.43
2019-04-27T12:26:32.468Z,2.60
2019-04-27T12:32:26.685Z,2.60
2019-04-27T12:40:27.665Z,2.93
2019-04-27T12:42:56.063Z,3.57
2019-04-27T12:46:05.920Z,3.63
2019-04-27T12:48:55.337Z,3.30
2019-04-27T12:51:23.734Z,3.73
2019-04-27T12:54:11.253Z,3.60
2019-04-27T12:56:58.764Z,3.97
2019-04-27T12:59:46.679Z,3.63
2019-04-27T13:02:15.093Z,4.30
2019-04-27T13:04:43.517Z,5.23
2019-04-27T13:07:31.167Z,4.97
2019-04-27T13:09:59.569Z,4.60
2019-04-27T13:12:27.980Z,4.73
2019-04-27T13:15:15.639Z,4.17
2019-04-27T13:17:44.070Z,4.80
2019-04-27T13:20:52.389Z,4.13
2019-04-27T13:23:20.791Z,3.63
2019-04-27T13:25:49.197Z,4.07
2019-04-27T13:28:36.722Z,5.10
2019-04-27T13:31:45.024Z,4.10
2019-04-27T13:34:32.674Z,4.03
2019-04-27T13:37:39.469Z,4.17
2019-04-27T13:40:47.794Z,3.73
2019-04-27T13:46:10.961Z,3.80
2019-04-27T13:48:58.512Z,4.33
2019-04-27T13:51:46.041Z,4.80
2019-04-27T13:54:33.571Z,4.40
2019-04-27T13:57:01.967Z,4.83
2019-04-27T13:59:51.507Z,4.70
2019-04-27T14:02:21.542Z,4.73
2019-04-27T14:04:50.029Z,4.80
2019-04-27T14:07:40.642Z,4.23
2019-04-27T14:10:09.346Z,4.70
2019-04-27T14:12:38.594Z,4.80
2019-04-27T14:15:49.075Z,4.87
2019-04-27T14:18:18.995Z,5.13
2019-04-27T14:20:48.694Z,5.50
2019-04-27T14:25:53.817Z,5.70
2019-04-27T14:28:22.224Z,5.77
2019-04-27T14:30:50.626Z,5.87
2019-04-27T14:33:39.834Z,5.50
2019-04-27T14:36:29.215Z,5.60
2019-04-27T14:39:18.508Z,5.43
2019-04-27T14:42:08.345Z,5.27
2019-04-27T14:44:56.409Z,6.50
2019-04-27T14:47:43.950Z,6.10
2019-04-27T14:50:12.407Z,6.57
2019-04-27T14:52:59.922Z,5.67
2019-04-27T14:55:49.044Z,5.57
2019-04-27T14:58:19.147Z,6.07
2019-04-27T15:00:49.692Z,6.23
2019-04-27T15:03:37.120Z,6.43
2019-04-27T15:06:05.586Z,7.00
2019-04-27T15:08:34.154Z,6.47
2019-04-27T15:13:43.134Z,6.83
2019-04-27T15:21:21.659Z,6.50
2019-04-27T15:24:13.471Z,6.27
2019-04-27T15:26:39.449Z,7.77
2019-04-27T15:34:37.969Z,7.37
2019-04-27T15:37:28.252Z,8.30
2019-04-27T15:40:14.738Z,3.90
2019-04-27T15:43:02.250Z,3.47
2019-04-27T15:45:30.658Z,3.10
2019-04-27T15:48:20.284Z,2.93
2019-04-27T15:50:48.440Z,2.70
2019-04-27T15:53:38.616Z,2.93
2019-04-27T15:56:06.225Z,2.73
2019-04-27T15:58:55.746Z,3.10
2019-04-27T16:01:24.041Z,1.97
2019-04-27T16:04:11.565Z,2.57
2019-04-27T16:07:25.317Z,2.77
2019-04-27T16:09:49.995Z,2.43
2019-04-27T16:12:18.399Z,2.83
2019-04-27T16:15:05.936Z,3.30
2019-04-27T16:17:34.338Z,3.23
2019-04-27T16:20:29.178Z,3.27
2019-04-27T16:25:48.415Z,2.70
2019-04-27T16:31:16.314Z,3.13
2019-04-27T16:33:44.713Z,2.50
2019-04-27T16:36:32.365Z,3.60
2019-04-27T16:39:20.432Z,2.90
2019-04-27T16:41:50.319Z,3.70
2019-04-27T16:44:19.015Z,3.23
2019-04-27T16:47:08.338Z,3.67
2019-04-27T16:49:38.146Z,3.57
2019-04-27T16:52:11.629Z,3.80
2019-04-27T16:54:37.829Z,3.53
2019-04-27T16:59:46.164Z,4.10
2019-04-27T17:02:11.598Z,4.47
2019-04-27T17:04:39.997Z,3.50
2019-04-27T17:07:09.085Z,4.20
2019-04-27T17:09:59.503Z,4.03
2019-04-27T17:12:48.657Z,3.50
2019-04-27T17:15:58.936Z,4.07
2019-04-27T17:21:21.116Z,3.90
2019-04-27T17:23:48.132Z,3.93
2019-04-27T17:26:23.311Z,2.97
2019-04-27T17:29:11.028Z,3.73
2019-04-27T17:34:19.024Z,3.90
2019-04-27T17:36:48.485Z,3.83
2019-04-27T17:39:34.484Z,4.30
2019-04-27T17:42:22.703Z,3.80
2019-04-27T17:45:11.475Z,3.40
2019-04-27T17:47:39.911Z,3.97
2019-04-27T17:50:09.326Z,4.43
2019-04-27T17:52:39.822Z,3.67
2019-04-27T17:55:08.725Z,3.80
2019-04-27T17:58:00.467Z,5.07
2019-04-27T18:00:28.082Z,3.83
2019-04-27T18:02:57.979Z,3.37
2019-04-27T18:05:28.543Z,2.93
2019-04-27T18:07:57.996Z,4.30
2019-04-27T18:10:28.170Z,3.97
2019-04-27T18:15:30.860Z,4.20
2019-04-27T18:20:38.017Z,4.70
2019-04-27T18:23:25.542Z,4.93
2019-04-27T18:26:32.421Z,4.70
2019-04-27T18:34:22.319Z,5.60
2019-04-27T18:37:09.851Z,5.20
2019-04-27T18:39:58.494Z,4.97
2019-04-27T18:42:31.095Z,6.90
2019-04-27T18:45:06.065Z,7.17
2019-04-27T18:53:24.233Z,8.43
2019-04-27T18:58:38.293Z,9.10
2019-04-27T19:01:25.958Z,8.60
2019-04-27T19:03:54.380Z,7.40
2019-04-27T19:06:42.052Z,6.67
2019-04-27T19:09:29.774Z,7.27
2019-04-27T19:11:58.183Z,7.50
2019-04-27T19:14:28.210Z,8.67
2019-04-27T19:16:58.664Z,7.57
2019-04-27T19:19:45.957Z,8.10
2019-04-27T19:24:48.837Z,8.10
2019-04-27T19:27:36.379Z,8.70
2019-04-27T19:30:44.693Z,10.20
2019-04-27T19:35:48.148Z,9.27
2019-04-27T19:38:36.817Z,10.00
2019-04-27T19:41:05.222Z,12.00
2019-04-27T19:43:52.888Z,10.23
2019-04-27T19:49:08.857Z,9.50
2019-04-27T19:51:39.174Z,8.67
2019-04-27T19:54:09.036Z,8.07
2019-04-27T19:56:38.398Z,8.67
2019-04-27T19:59:28.075Z,8.63
2019-04-27T20:05:45.182Z,7.90
2019-04-27T20:08:51.967Z,8.10
2019-04-27T20:11:20.368Z,8.00
2019-04-27T20:13:50.618Z,8.20
2019-04-27T20:16:20.764Z,9.00
2019-04-27T20:18:49.273Z,8.40
2019-04-27T20:24:24.460Z,7.57
2019-04-27T20:26:52.859Z,8.70
2019-04-27T20:31:55.188Z,8.13
2019-04-27T20:34:42.845Z,8.20
2019-04-27T20:37:11.919Z,8.47
2019-04-27T20:39:42.889Z,8.80
2019-04-27T20:42:31.498Z,8.10
2019-04-27T20:45:20.082Z,9.30
2019-04-27T20:47:48.480Z,9.40
2019-04-27T20:50:16.892Z,9.97
2019-04-27T20:58:33.313Z,8.67
2019-04-27T21:04:10.982Z,7.97
2019-04-27T21:12:03.244Z,8.10
2019-04-27T21:14:31.764Z,7.67
2019-04-27T21:17:19.752Z,8.90
2019-04-27T21:20:07.318Z,8.83
2019-04-27T21:22:35.725Z,8.30
2019-04-27T21:25:23.387Z,8.07
2019-04-27T21:27:51.786Z,8.93
2019-04-27T21:30:39.442Z,8.00
2019-04-27T21:33:27.096Z,8.27
2019-04-27T21:35:55.502Z,8.43
2019-04-27T21:38:43.188Z,8.03
2019-04-27T21:41:31.260Z,7.80
2019-04-27T21:46:54.226Z,8.47
2019-04-27T21:52:17.272Z,8.10
2019-04-27T21:57:24.604Z,7.97
2019-04-27T21:59:53.013Z,8.87
2019-04-27T22:05:51.620Z,8.97
2019-04-27T22:08:21.492Z,8.90
2019-04-27T22:11:11.734Z,8.70
2019-04-27T22:16:27.674Z,8.43
2019-04-27T22:18:56.095Z,9.27
2019-04-27T22:29:41.336Z,8.80
2019-04-27T22:32:09.753Z,8.40
2019-04-27T22:34:38.168Z,8.00
2019-04-27T22:37:06.637Z,9.70
2019-04-27T22:39:54.176Z,9.80
2019-04-27T22:42:41.719Z,9.00
2019-04-27T22:45:50.998Z,9.03
2019-04-27T22:51:28.256Z,9.07
2019-04-27T22:54:15.937Z,10.03
2019-04-27T23:05:47.359Z,9.20
2019-04-27T23:08:15.761Z,9.40
2019-04-27T23:10:44.174Z,10.03
2019-04-27T23:13:31.837Z,10.10
2019-04-27T23:18:54.913Z,10.13
2019-04-27T23:21:42.576Z,9.20
2019-04-27T23:24:11.001Z,9.70
2019-04-27T23:26:58.530Z,10.80
2019-04-27T23:29:26.935Z,9.17
2019-04-27T23:34:53.675Z,10.50
2019-04-27T23:37:41.326Z,9.20
2019-04-27T23:40:51.626Z,9.03
2019-04-27T23:46:08.857Z,9.60
2019-04-27T23:48:56.378Z,9.33
2019-04-27T23:56:37.527Z,9.13
2019-04-27T23:59:25.451Z,9.90
